sensor_id;sensor_type;location;lat;lon;timestamp;temperature;humidity
45329;DHT22;31063;48.356;10.896;2022-12-07T00:02:04;3.40;99.90
45329;DHT22;31063;48.356;10.896;2022-12-07T00:04:30;3.30;99.90
45329;DHT22;31063;48.356;10.896;2022-12-07T00:06:55;3.20;99.90
45329;DHT22;31063;48.356;10.896;2022-12-07T00:09:21;4.30;99.90
45329;DHT22;31063;48.356;10.896;2022-12-07T00:11:51;3.20;99.90
45329;DHT22;31063;48.356;10.896;2022-12-07T00:14:17;3.20;99.90
45329;DHT22;31063;48.356;10.896;2022-12-07T00:16:44;3.30;99.90
45329;DHT22;31063;48.356;10.896;2022-12-07T00:19:11;3.30;99.90
45329;DHT22;31063;48.356;10.896;2022-12-07T00:21:37;3.30;99.90
45329;DHT22;31063;48.356;10.896;2022-12-07T00:24:04;3.40;99.90
45329;DHT22;31063;48.356;10.896;2022-12-07T00:29:00;3.80;99.90
45329;DHT22;31063;48.356;10.896;2022-12-07T00:31:28;3.30;99.90
45329;DHT22;31063;48.356;10.896;2022-12-07T00:33:54;3.30;99.90
45329;DHT22;31063;48.356;10.896;2022-12-07T00:36:22;3.30;99.90
45329;DHT22;31063;48.356;10.896;2022-12-07T00:38:49;3.30;99.90
45329;DHT22;31063;48.356;10.896;2022-12-07T00:41:17;3.30;99.90
45329;DHT22;31063;48.356;10.896;2022-12-07T00:43:44;3.30;99.90
45329;DHT22;31063;48.356;10.896;2022-12-07T00:55:55;3.30;99.90
45329;DHT22;31063;48.356;10.896;2022-12-07T00:58:22;3.30;99.90
45329;DHT22;31063;48.356;10.896;2022-12-07T01:00:48;3.30;99.90
45329;DHT22;31063;48.356;10.896;2022-12-07T01:03:14;3.30;99.90
45329;DHT22;31063;48.356;10.896;2022-12-07T01:05:51;3.20;99.90
45329;DHT22;31063;48.356;10.896;2022-12-07T01:08:17;3.30;99.90
45329;DHT22;31063;48.356;10.896;2022-12-07T01:10:43;3.30;99.90
45329;DHT22;31063;48.356;10.896;2022-12-07T01:13:08;3.30;99.90
45329;DHT22;31063;48.356;10.896;2022-12-07T01:15:34;3.30;99.90
45329;DHT22;31063;48.356;10.896;2022-12-07T01:17:59;3.30;99.90
45329;DHT22;31063;48.356;10.896;2022-12-07T01:20:25;3.20;99.90
45329;DHT22;31063;48.356;10.896;2022-12-07T01:22:51;3.40;99.90
45329;DHT22;31063;48.356;10.896;2022-12-07T01:25:16;3.20;99.90
45329;DHT22;31063;48.356;10.896;2022-12-07T01:27:42;3.20;99.90
45329;DHT22;31063;48.356;10.896;2022-12-07T01:30:09;3.20;99.90
45329;DHT22;31063;48.356;10.896;2022-12-07T01:32:35;3.20;99.90
45329;DHT22;31063;48.356;10.896;2022-12-07T01:35:01;3.10;99.90
45329;DHT22;31063;48.356;10.896;2022-12-07T01:37:26;3.20;99.90
45329;DHT22;31063;48.356;10.896;2022-12-07T01:39:52;3.20;99.90
45329;DHT22;31063;48.356;10.896;2022-12-07T01:42:18;3.20;99.90
45329;DHT22;31063;48.356;10.896;2022-12-07T01:47:42;3.30;99.90
45329;DHT22;31063;48.356;10.896;2022-12-07T01:50:09;3.30;99.90
45329;DHT22;31063;48.356;10.896;2022-12-07T01:52:36;3.30;99.90
45329;DHT22;31063;48.356;10.896;2022-12-07T01:55:14;3.30;99.90
45329;DHT22;31063;48.356;10.896;2022-12-07T01:57:47;3.30;99.90
45329;DHT22;31063;48.356;10.896;2022-12-07T02:00:14;3.20;99.90
45329;DHT22;31063;48.356;10.896;2022-12-07T02:03:05;3.20;99.90
45329;DHT22;31063;48.356;10.896;2022-12-07T02:05:34;3.20;99.90
45329;DHT22;31063;48.356;10.896;2022-12-07T02:08:01;3.10;99.90
45329;DHT22;31063;48.356;10.896;2022-12-07T02:10:29;3.10;99.90
45329;DHT22;31063;48.356;10.896;2022-12-07T02:13:06;3.10;99.90
45329;DHT22;31063;48.356;10.896;2022-12-07T02:15:42;3.90;99.90
45329;DHT22;31063;48.356;10.896;2022-12-07T02:23:40;3.10;99.90
45329;DHT22;31063;48.356;10.896;2022-12-07T02:31:44;3.10;99.90
45329;DHT22;31063;48.356;10.896;2022-12-07T02:36:55;3.10;99.90
45329;DHT22;31063;48.356;10.896;2022-12-07T02:39:53;3.10;99.90
45329;DHT22;31063;48.356;10.896;2022-12-07T02:42:26;3.10;99.90
45329;DHT22;31063;48.356;10.896;2022-12-07T02:44:54;3.10;99.90
45329;DHT22;31063;48.356;10.896;2022-12-07T02:47:21;3.10;99.90
45329;DHT22;31063;48.356;10.896;2022-12-07T02:49:49;3.10;99.90
45329;DHT22;31063;48.356;10.896;2022-12-07T02:52:15;3.00;99.90
45329;DHT22;31063;48.356;10.896;2022-12-07T02:54:41;3.00;99.90
45329;DHT22;31063;48.356;10.896;2022-12-07T02:57:23;3.00;99.90
45329;DHT22;31063;48.356;10.896;2022-12-07T03:02:31;3.00;99.90
45329;DHT22;31063;48.356;10.896;2022-12-07T03:10:57;3.00;99.90
45329;DHT22;31063;48.356;10.896;2022-12-07T03:16:05;3.00;99.90
45329;DHT22;31063;48.356;10.896;2022-12-07T03:18:37;3.00;99.90
45329;DHT22;31063;48.356;10.896;2022-12-07T03:21:08;3.00;99.90
45329;DHT22;31063;48.356;10.896;2022-12-07T03:23:37;3.00;99.90
45329;DHT22;31063;48.356;10.896;2022-12-07T03:26:04;3.00;99.90
45329;DHT22;31063;48.356;10.896;2022-12-07T03:28:36;3.00;99.90
45329;DHT22;31063;48.356;10.896;2022-12-07T03:31:17;3.00;99.90
45329;DHT22;31063;48.356;10.896;2022-12-07T03:34:06;3.00;99.90
45329;DHT22;31063;48.356;10.896;2022-12-07T03:39:14;3.00;99.90
45329;DHT22;31063;48.356;10.896;2022-12-07T03:41:42;3.00;99.90
45329;DHT22;31063;48.356;10.896;2022-12-07T03:44:08;3.10;99.90
45329;DHT22;31063;48.356;10.896;2022-12-07T03:47:12;3.10;99.90
45329;DHT22;31063;48.356;10.896;2022-12-07T03:50:13;3.00;99.90
45329;DHT22;31063;48.356;10.896;2022-12-07T03:52:32;3.00;99.90
45329;DHT22;31063;48.356;10.896;2022-12-07T03:55:10;3.00;99.90
45329;DHT22;31063;48.356;10.896;2022-12-07T03:57:38;3.00;99.90
45329;DHT22;31063;48.356;10.896;2022-12-07T04:00:05;3.00;99.90
45329;DHT22;31063;48.356;10.896;2022-12-07T04:02:32;3.00;99.90
45329;DHT22;31063;48.356;10.896;2022-12-07T04:04:58;3.00;99.90
45329;DHT22;31063;48.356;10.896;2022-12-07T04:07:24;2.90;99.90
45329;DHT22;31063;48.356;10.896;2022-12-07T04:09:50;3.00;99.90
45329;DHT22;31063;48.356;10.896;2022-12-07T04:12:16;2.90;99.90
45329;DHT22;31063;48.356;10.896;2022-12-07T04:14:42;2.90;99.90
45329;DHT22;31063;48.356;10.896;2022-12-07T04:17:08;2.90;99.90
45329;DHT22;31063;48.356;10.896;2022-12-07T04:19:34;2.90;99.90
45329;DHT22;31063;48.356;10.896;2022-12-07T04:22:01;3.00;99.90
45329;DHT22;31063;48.356;10.896;2022-12-07T04:24:27;2.90;99.90
45329;DHT22;31063;48.356;10.896;2022-12-07T04:26:53;2.90;99.90
45329;DHT22;31063;48.356;10.896;2022-12-07T04:29:19;2.90;99.90
45329;DHT22;31063;48.356;10.896;2022-12-07T04:31:45;2.90;99.90
45329;DHT22;31063;48.356;10.896;2022-12-07T04:34:11;2.90;99.90
45329;DHT22;31063;48.356;10.896;2022-12-07T04:36:38;2.90;99.90
45329;DHT22;31063;48.356;10.896;2022-12-07T04:39:05;2.90;99.90
45329;DHT22;31063;48.356;10.896;2022-12-07T04:41:31;2.90;99.90
45329;DHT22;31063;48.356;10.896;2022-12-07T04:44:03;2.90;99.90
45329;DHT22;31063;48.356;10.896;2022-12-07T04:46:30;2.90;99.90
45329;DHT22;31063;48.356;10.896;2022-12-07T04:48:56;2.90;99.90
45329;DHT22;31063;48.356;10.896;2022-12-07T04:51:27;2.90;99.90
45329;DHT22;31063;48.356;10.896;2022-12-07T04:53:54;2.80;99.90
45329;DHT22;31063;48.356;10.896;2022-12-07T04:56:19;2.80;99.90
45329;DHT22;31063;48.356;10.896;2022-12-07T04:58:46;2.80;99.90
45329;DHT22;31063;48.356;10.896;2022-12-07T05:01:15;2.80;99.90
45329;DHT22;31063;48.356;10.896;2022-12-07T05:03:41;2.80;99.90
45329;DHT22;31063;48.356;10.896;2022-12-07T05:06:08;2.70;99.90
45329;DHT22;31063;48.356;10.896;2022-12-07T05:08:35;2.80;99.90
45329;DHT22;31063;48.356;10.896;2022-12-07T05:11:01;2.80;99.90
45329;DHT22;31063;48.356;10.896;2022-12-07T05:13:27;2.80;99.90
45329;DHT22;31063;48.356;10.896;2022-12-07T05:15:53;2.80;99.90
45329;DHT22;31063;48.356;10.896;2022-12-07T05:18:18;2.80;99.90
45329;DHT22;31063;48.356;10.896;2022-12-07T05:20:44;2.80;99.90
45329;DHT22;31063;48.356;10.896;2022-12-07T05:23:10;2.80;99.90
45329;DHT22;31063;48.356;10.896;2022-12-07T05:25:36;2.80;99.90
45329;DHT22;31063;48.356;10.896;2022-12-07T05:28:02;2.80;99.90
45329;DHT22;31063;48.356;10.896;2022-12-07T05:30:29;2.80;99.90
45329;DHT22;31063;48.356;10.896;2022-12-07T05:32:55;2.80;99.90
45329;DHT22;31063;48.356;10.896;2022-12-07T05:35:21;2.80;99.90
45329;DHT22;31063;48.356;10.896;2022-12-07T05:37:46;2.80;99.90
45329;DHT22;31063;48.356;10.896;2022-12-07T05:40:13;2.80;99.90
45329;DHT22;31063;48.356;10.896;2022-12-07T05:42:39;2.80;99.90
45329;DHT22;31063;48.356;10.896;2022-12-07T05:45:06;2.80;99.90
45329;DHT22;31063;48.356;10.896;2022-12-07T05:47:31;2.70;99.90
45329;DHT22;31063;48.356;10.896;2022-12-07T05:49:57;2.70;99.90
45329;DHT22;31063;48.356;10.896;2022-12-07T05:52:23;2.70;99.90
45329;DHT22;31063;48.356;10.896;2022-12-07T05:54:49;2.80;99.90
45329;DHT22;31063;48.356;10.896;2022-12-07T05:57:14;2.70;99.90
45329;DHT22;31063;48.356;10.896;2022-12-07T05:59:40;2.70;99.90
45329;DHT22;31063;48.356;10.896;2022-12-07T06:02:08;2.70;99.90
45329;DHT22;31063;48.356;10.896;2022-12-07T06:04:40;2.70;99.90
45329;DHT22;31063;48.356;10.896;2022-12-07T06:07:07;2.80;99.90
45329;DHT22;31063;48.356;10.896;2022-12-07T06:09:33;2.70;99.90
45329;DHT22;31063;48.356;10.896;2022-12-07T06:11:59;2.80;99.90
45329;DHT22;31063;48.356;10.896;2022-12-07T06:14:43;2.80;99.90
45329;DHT22;31063;48.356;10.896;2022-12-07T06:17:09;2.70;99.90
45329;DHT22;31063;48.356;10.896;2022-12-07T06:19:35;2.70;99.90
45329;DHT22;31063;48.356;10.896;2022-12-07T06:22:02;2.70;99.90
45329;DHT22;31063;48.356;10.896;2022-12-07T06:24:28;2.70;99.90
45329;DHT22;31063;48.356;10.896;2022-12-07T06:26:54;2.70;99.90
45329;DHT22;31063;48.356;10.896;2022-12-07T06:29:19;2.70;99.90
45329;DHT22;31063;48.356;10.896;2022-12-07T06:31:45;2.70;99.90
45329;DHT22;31063;48.356;10.896;2022-12-07T06:34:13;2.60;99.90
45329;DHT22;31063;48.356;10.896;2022-12-07T06:36:39;2.60;99.90
45329;DHT22;31063;48.356;10.896;2022-12-07T06:39:06;2.60;99.90
45329;DHT22;31063;48.356;10.896;2022-12-07T06:41:33;2.60;99.90
45329;DHT22;31063;48.356;10.896;2022-12-07T06:43:58;2.50;99.90
45329;DHT22;31063;48.356;10.896;2022-12-07T06:46:24;2.50;99.90
45329;DHT22;31063;48.356;10.896;2022-12-07T06:48:50;2.50;99.90
45329;DHT22;31063;48.356;10.896;2022-12-07T06:51:16;2.50;99.90
45329;DHT22;31063;48.356;10.896;2022-12-07T06:53:42;2.50;99.90
45329;DHT22;31063;48.356;10.896;2022-12-07T06:56:07;2.50;99.90
45329;DHT22;31063;48.356;10.896;2022-12-07T06:58:33;2.40;99.90
45329;DHT22;31063;48.356;10.896;2022-12-07T07:00:58;2.50;99.90
45329;DHT22;31063;48.356;10.896;2022-12-07T07:03:24;2.50;99.90
45329;DHT22;31063;48.356;10.896;2022-12-07T07:05:50;2.40;99.90
45329;DHT22;31063;48.356;10.896;2022-12-07T07:08:15;2.40;99.90
45329;DHT22;31063;48.356;10.896;2022-12-07T07:10:41;2.40;99.90
45329;DHT22;31063;48.356;10.896;2022-12-07T07:13:07;2.40;99.90
45329;DHT22;31063;48.356;10.896;2022-12-07T07:15:34;2.40;99.90
45329;DHT22;31063;48.356;10.896;2022-12-07T07:18:00;2.40;99.90
45329;DHT22;31063;48.356;10.896;2022-12-07T07:20:26;2.40;99.90
45329;DHT22;31063;48.356;10.896;2022-12-07T07:22:54;2.40;99.90
45329;DHT22;31063;48.356;10.896;2022-12-07T07:25:19;2.40;99.90
45329;DHT22;31063;48.356;10.896;2022-12-07T07:27:45;2.30;99.90
45329;DHT22;31063;48.356;10.896;2022-12-07T07:30:11;2.30;99.90
45329;DHT22;31063;48.356;10.896;2022-12-07T07:32:37;2.30;99.90
45329;DHT22;31063;48.356;10.896;2022-12-07T07:35:03;2.30;99.90
45329;DHT22;31063;48.356;10.896;2022-12-07T07:37:28;2.30;99.90
45329;DHT22;31063;48.356;10.896;2022-12-07T07:39:54;2.30;99.90
45329;DHT22;31063;48.356;10.896;2022-12-07T07:42:20;2.30;99.90
45329;DHT22;31063;48.356;10.896;2022-12-07T07:44:45;2.30;99.90
45329;DHT22;31063;48.356;10.896;2022-12-07T07:47:11;2.20;99.90
45329;DHT22;31063;48.356;10.896;2022-12-07T07:49:37;2.20;99.90
45329;DHT22;31063;48.356;10.896;2022-12-07T07:52:02;2.20;99.90
45329;DHT22;31063;48.356;10.896;2022-12-07T07:54:28;2.20;99.90
45329;DHT22;31063;48.356;10.896;2022-12-07T07:56:54;2.20;99.90
45329;DHT22;31063;48.356;10.896;2022-12-07T07:59:20;2.20;99.90
45329;DHT22;31063;48.356;10.896;2022-12-07T08:01:45;2.20;99.90
45329;DHT22;31063;48.356;10.896;2022-12-07T08:04:11;2.20;99.90
45329;DHT22;31063;48.356;10.896;2022-12-07T08:06:36;2.20;99.90
45329;DHT22;31063;48.356;10.896;2022-12-07T08:09:02;2.20;99.90
45329;DHT22;31063;48.356;10.896;2022-12-07T08:11:30;2.20;99.90
45329;DHT22;31063;48.356;10.896;2022-12-07T08:13:56;2.20;99.90
45329;DHT22;31063;48.356;10.896;2022-12-07T08:16:21;2.30;99.90
45329;DHT22;31063;48.356;10.896;2022-12-07T08:18:47;2.20;99.90
45329;DHT22;31063;48.356;10.896;2022-12-07T08:21:14;2.20;99.90
45329;DHT22;31063;48.356;10.896;2022-12-07T08:23:40;2.20;99.90
45329;DHT22;31063;48.356;10.896;2022-12-07T08:26:12;2.20;99.90
45329;DHT22;31063;48.356;10.896;2022-12-07T08:28:39;2.30;99.90
45329;DHT22;31063;48.356;10.896;2022-12-07T08:31:07;2.20;99.90
45329;DHT22;31063;48.356;10.896;2022-12-07T08:33:34;2.20;99.90
45329;DHT22;31063;48.356;10.896;2022-12-07T08:36:02;2.20;99.90
45329;DHT22;31063;48.356;10.896;2022-12-07T08:38:28;2.20;99.90
45329;DHT22;31063;48.356;10.896;2022-12-07T08:40:57;2.20;99.90
45329;DHT22;31063;48.356;10.896;2022-12-07T08:43:24;2.20;99.90
45329;DHT22;31063;48.356;10.896;2022-12-07T08:46:12;2.30;99.90
45329;DHT22;31063;48.356;10.896;2022-12-07T08:48:42;2.30;99.90
45329;DHT22;31063;48.356;10.896;2022-12-07T08:51:09;2.30;99.90
45329;DHT22;31063;48.356;10.896;2022-12-07T08:53:37;2.40;99.90
45329;DHT22;31063;48.356;10.896;2022-12-07T08:56:04;2.50;99.90
45329;DHT22;31063;48.356;10.896;2022-12-07T08:58:31;2.50;99.90
45329;DHT22;31063;48.356;10.896;2022-12-07T09:00:57;2.50;99.90
45329;DHT22;31063;48.356;10.896;2022-12-07T09:03:22;2.60;99.90
45329;DHT22;31063;48.356;10.896;2022-12-07T09:05:48;2.70;99.90
45329;DHT22;31063;48.356;10.896;2022-12-07T09:08:14;2.70;99.90
45329;DHT22;31063;48.356;10.896;2022-12-07T09:10:39;2.80;99.90
45329;DHT22;31063;48.356;10.896;2022-12-07T09:13:05;2.80;99.90
45329;DHT22;31063;48.356;10.896;2022-12-07T09:15:31;2.90;99.90
45329;DHT22;31063;48.356;10.896;2022-12-07T09:17:57;2.90;99.90
45329;DHT22;31063;48.356;10.896;2022-12-07T09:20:22;3.00;99.90
45329;DHT22;31063;48.356;10.896;2022-12-07T09:22:48;3.10;99.90
45329;DHT22;31063;48.356;10.896;2022-12-07T09:25:14;3.00;99.90
45329;DHT22;31063;48.356;10.896;2022-12-07T09:27:40;3.10;99.90
45329;DHT22;31063;48.356;10.896;2022-12-07T09:30:06;3.20;99.90
45329;DHT22;31063;48.356;10.896;2022-12-07T09:32:32;3.20;99.90
45329;DHT22;31063;48.356;10.896;2022-12-07T09:34:57;3.30;99.90
45329;DHT22;31063;48.356;10.896;2022-12-07T09:37:23;3.30;99.90
45329;DHT22;31063;48.356;10.896;2022-12-07T09:39:49;3.40;99.90
45329;DHT22;31063;48.356;10.896;2022-12-07T09:44:58;3.50;99.90
45329;DHT22;31063;48.356;10.896;2022-12-07T09:47:25;3.60;99.90
45329;DHT22;31063;48.356;10.896;2022-12-07T09:49:51;3.70;99.90
45329;DHT22;31063;48.356;10.896;2022-12-07T09:52:19;3.80;99.90
45329;DHT22;31063;48.356;10.896;2022-12-07T09:54:50;3.80;99.90
45329;DHT22;31063;48.356;10.896;2022-12-07T09:57:17;3.80;99.90
45329;DHT22;31063;48.356;10.896;2022-12-07T09:59:43;3.90;99.90
45329;DHT22;31063;48.356;10.896;2022-12-07T10:02:49;3.90;99.90
45329;DHT22;31063;48.356;10.896;2022-12-07T10:05:19;4.00;99.90
45329;DHT22;31063;48.356;10.896;2022-12-07T10:07:46;4.10;99.90
45329;DHT22;31063;48.356;10.896;2022-12-07T10:10:35;4.20;99.90
45329;DHT22;31063;48.356;10.896;2022-12-07T10:13:20;4.40;99.90
45329;DHT22;31063;48.356;10.896;2022-12-07T10:15:55;4.40;99.90
45329;DHT22;31063;48.356;10.896;2022-12-07T10:23:41;4.70;99.90
45329;DHT22;31063;48.356;10.896;2022-12-07T10:28:53;4.90;99.90
45329;DHT22;31063;48.356;10.896;2022-12-07T10:31:21;4.90;99.90
45329;DHT22;31063;48.356;10.896;2022-12-07T10:33:53;5.10;99.90
45329;DHT22;31063;48.356;10.896;2022-12-07T10:36:22;5.10;99.90
45329;DHT22;31063;48.356;10.896;2022-12-07T10:38:58;5.10;99.90
45329;DHT22;31063;48.356;10.896;2022-12-07T10:41:24;5.10;99.90
45329;DHT22;31063;48.356;10.896;2022-12-07T10:43:52;5.10;99.90
45329;DHT22;31063;48.356;10.896;2022-12-07T10:46:37;5.10;99.90
45329;DHT22;31063;48.356;10.896;2022-12-07T10:52:58;5.10;99.90
45329;DHT22;31063;48.356;10.896;2022-12-07T10:56:07;5.10;99.90
45329;DHT22;31063;48.356;10.896;2022-12-07T11:07:13;5.00;99.90
45329;DHT22;31063;48.356;10.896;2022-12-07T11:12:54;5.00;99.90
45329;DHT22;31063;48.356;10.896;2022-12-07T11:18:11;5.10;99.90
45329;DHT22;31063;48.356;10.896;2022-12-07T11:20:51;5.10;99.90
45329;DHT22;31063;48.356;10.896;2022-12-07T11:29:16;5.20;99.90
45329;DHT22;31063;48.356;10.896;2022-12-07T11:34:33;5.20;99.90
45329;DHT22;31063;48.356;10.896;2022-12-07T11:37:06;5.20;99.90
45329;DHT22;31063;48.356;10.896;2022-12-07T11:39:46;5.20;99.90
45329;DHT22;31063;48.356;10.896;2022-12-07T11:42:19;5.20;99.90
45329;DHT22;31063;48.356;10.896;2022-12-07T11:45:12;5.20;99.90
45329;DHT22;31063;48.356;10.896;2022-12-07T11:48:02;5.20;99.90
45329;DHT22;31063;48.356;10.896;2022-12-07T11:50:42;5.20;99.90
45329;DHT22;31063;48.356;10.896;2022-12-07T11:55:50;5.30;99.90
45329;DHT22;31063;48.356;10.896;2022-12-07T12:01:14;5.10;99.90
45329;DHT22;31063;48.356;10.896;2022-12-07T12:03:54;5.10;99.90
45329;DHT22;31063;48.356;10.896;2022-12-07T12:06:22;5.10;99.90
45329;DHT22;31063;48.356;10.896;2022-12-07T12:19:41;5.10;99.90
45329;DHT22;31063;48.356;10.896;2022-12-07T12:22:15;5.20;99.90
45329;DHT22;31063;48.356;10.896;2022-12-07T12:24:44;5.00;99.90
45329;DHT22;31063;48.356;10.896;2022-12-07T12:27:26;5.00;99.90
45329;DHT22;31063;48.356;10.896;2022-12-07T12:30:03;5.00;99.90
45329;DHT22;31063;48.356;10.896;2022-12-07T12:32:38;5.00;99.90
45329;DHT22;31063;48.356;10.896;2022-12-07T12:37:52;5.00;99.90
45329;DHT22;31063;48.356;10.896;2022-12-07T12:42:47;5.00;99.90
45329;DHT22;31063;48.356;10.896;2022-12-07T12:45:28;5.10;99.90
45329;DHT22;31063;48.356;10.896;2022-12-07T12:47:55;5.00;99.90
45329;DHT22;31063;48.356;10.896;2022-12-07T12:50:33;5.00;99.90
45329;DHT22;31063;48.356;10.896;2022-12-07T12:53:12;5.00;99.90
45329;DHT22;31063;48.356;10.896;2022-12-07T13:03:54;5.10;99.90
45329;DHT22;31063;48.356;10.896;2022-12-07T13:06:40;5.10;99.90
45329;DHT22;31063;48.356;10.896;2022-12-07T13:09:22;5.10;99.90
45329;DHT22;31063;48.356;10.896;2022-12-07T13:11:50;5.40;99.90
45329;DHT22;31063;48.356;10.896;2022-12-07T13:14:41;4.90;99.90
45329;DHT22;31063;48.356;10.896;2022-12-07T13:28:02;4.90;99.90
45329;DHT22;31063;48.356;10.896;2022-12-07T13:30:43;4.90;99.90
45329;DHT22;31063;48.356;10.896;2022-12-07T13:33:10;4.90;99.90
45329;DHT22;31063;48.356;10.896;2022-12-07T13:35:37;4.90;99.90
45329;DHT22;31063;48.356;10.896;2022-12-07T13:38:22;4.90;99.90
45329;DHT22;31063;48.356;10.896;2022-12-07T13:41:13;5.10;99.90
45329;DHT22;31063;48.356;10.896;2022-12-07T13:43:48;4.90;99.90
45329;DHT22;31063;48.356;10.896;2022-12-07T13:46:14;4.90;99.90
45329;DHT22;31063;48.356;10.896;2022-12-07T13:48:47;4.80;99.90
45329;DHT22;31063;48.356;10.896;2022-12-07T13:51:27;4.90;99.90
45329;DHT22;31063;48.356;10.896;2022-12-07T13:54:01;4.90;99.90
45329;DHT22;31063;48.356;10.896;2022-12-07T13:56:33;4.90;99.90
45329;DHT22;31063;48.356;10.896;2022-12-07T13:58:59;4.90;99.90
45329;DHT22;31063;48.356;10.896;2022-12-07T14:01:26;4.90;99.90
45329;DHT22;31063;48.356;10.896;2022-12-07T14:03:52;4.90;99.90
45329;DHT22;31063;48.356;10.896;2022-12-07T14:06:24;4.90;99.90
45329;DHT22;31063;48.356;10.896;2022-12-07T14:09:06;4.80;99.90
45329;DHT22;31063;48.356;10.896;2022-12-07T14:11:32;4.80;99.90
45329;DHT22;31063;48.356;10.896;2022-12-07T14:14:00;4.80;99.90
45329;DHT22;31063;48.356;10.896;2022-12-07T14:16:35;4.70;99.90
45329;DHT22;31063;48.356;10.896;2022-12-07T14:19:04;4.80;99.90
45329;DHT22;31063;48.356;10.896;2022-12-07T14:21:33;4.70;99.90
45329;DHT22;31063;48.356;10.896;2022-12-07T14:26:33;4.70;99.90
45329;DHT22;31063;48.356;10.896;2022-12-07T14:31:57;4.70;99.90
45329;DHT22;31063;48.356;10.896;2022-12-07T14:34:23;4.80;99.90
45329;DHT22;31063;48.356;10.896;2022-12-07T14:36:49;4.80;99.90
45329;DHT22;31063;48.356;10.896;2022-12-07T14:39:15;4.80;99.90
45329;DHT22;31063;48.356;10.896;2022-12-07T14:41:40;5.00;99.90
45329;DHT22;31063;48.356;10.896;2022-12-07T14:44:20;5.00;99.90
45329;DHT22;31063;48.356;10.896;2022-12-07T14:46:47;4.90;99.90
45329;DHT22;31063;48.356;10.896;2022-12-07T14:49:12;4.90;99.90
45329;DHT22;31063;48.356;10.896;2022-12-07T14:51:39;5.00;99.90
45329;DHT22;31063;48.356;10.896;2022-12-07T14:54:06;4.90;99.90
45329;DHT22;31063;48.356;10.896;2022-12-07T14:56:36;4.90;99.90
45329;DHT22;31063;48.356;10.896;2022-12-07T14:59:02;4.90;99.90
45329;DHT22;31063;48.356;10.896;2022-12-07T15:01:28;4.90;99.90
45329;DHT22;31063;48.356;10.896;2022-12-07T15:03:53;4.80;99.90
45329;DHT22;31063;48.356;10.896;2022-12-07T15:06:19;5.10;99.90
45329;DHT22;31063;48.356;10.896;2022-12-07T15:08:45;5.70;99.90
45329;DHT22;31063;48.356;10.896;2022-12-07T15:11:15;4.80;99.90
45329;DHT22;31063;48.356;10.896;2022-12-07T15:13:42;4.80;99.90
45329;DHT22;31063;48.356;10.896;2022-12-07T15:16:26;4.70;99.90
45329;DHT22;31063;48.356;10.896;2022-12-07T15:18:51;4.70;99.90
45329;DHT22;31063;48.356;10.896;2022-12-07T15:21:17;4.70;99.90
45329;DHT22;31063;48.356;10.896;2022-12-07T15:23:43;4.70;99.90
45329;DHT22;31063;48.356;10.896;2022-12-07T15:26:10;4.70;99.90
45329;DHT22;31063;48.356;10.896;2022-12-07T15:28:36;4.70;99.90
45329;DHT22;31063;48.356;10.896;2022-12-07T15:31:01;4.70;99.90
45329;DHT22;31063;48.356;10.896;2022-12-07T15:33:27;4.60;99.90
45329;DHT22;31063;48.356;10.896;2022-12-07T15:35:52;4.60;99.90
45329;DHT22;31063;48.356;10.896;2022-12-07T15:38:18;4.60;99.90
45329;DHT22;31063;48.356;10.896;2022-12-07T15:40:47;4.80;99.90
45329;DHT22;31063;48.356;10.896;2022-12-07T15:43:12;4.50;99.90
45329;DHT22;31063;48.356;10.896;2022-12-07T15:45:57;4.50;99.90
45329;DHT22;31063;48.356;10.896;2022-12-07T15:48:23;4.40;99.90
45329;DHT22;31063;48.356;10.896;2022-12-07T15:50:48;4.40;99.90
45329;DHT22;31063;48.356;10.896;2022-12-07T15:53:14;4.40;99.90
45329;DHT22;31063;48.356;10.896;2022-12-07T15:55:40;4.40;99.90
45329;DHT22;31063;48.356;10.896;2022-12-07T15:58:06;4.40;99.90
45329;DHT22;31063;48.356;10.896;2022-12-07T16:00:32;4.30;99.90
45329;DHT22;31063;48.356;10.896;2022-12-07T16:02:57;4.30;99.90
45329;DHT22;31063;48.356;10.896;2022-12-07T16:05:23;4.30;99.90
45329;DHT22;31063;48.356;10.896;2022-12-07T16:07:48;4.20;99.90
45329;DHT22;31063;48.356;10.896;2022-12-07T16:10:14;4.30;99.90
45329;DHT22;31063;48.356;10.896;2022-12-07T16:12:40;4.30;99.90
45329;DHT22;31063;48.356;10.896;2022-12-07T16:15:06;4.40;99.90
45329;DHT22;31063;48.356;10.896;2022-12-07T16:17:32;4.20;99.90
45329;DHT22;31063;48.356;10.896;2022-12-07T16:19:57;4.10;99.90
45329;DHT22;31063;48.356;10.896;2022-12-07T16:22:23;4.10;99.90
45329;DHT22;31063;48.356;10.896;2022-12-07T16:24:49;4.10;99.90
45329;DHT22;31063;48.356;10.896;2022-12-07T16:27:15;4.10;99.90
45329;DHT22;31063;48.356;10.896;2022-12-07T16:29:41;4.10;99.90
45329;DHT22;31063;48.356;10.896;2022-12-07T16:32:07;4.10;99.90
45329;DHT22;31063;48.356;10.896;2022-12-07T16:34:32;4.00;99.90
45329;DHT22;31063;48.356;10.896;2022-12-07T16:36:58;4.00;99.90
45329;DHT22;31063;48.356;10.896;2022-12-07T16:39:23;4.10;99.90
45329;DHT22;31063;48.356;10.896;2022-12-07T16:41:50;3.90;99.90
45329;DHT22;31063;48.356;10.896;2022-12-07T16:44:18;4.10;99.90
45329;DHT22;31063;48.356;10.896;2022-12-07T16:46:43;4.00;99.90
45329;DHT22;31063;48.356;10.896;2022-12-07T16:49:14;3.90;99.90
45329;DHT22;31063;48.356;10.896;2022-12-07T16:51:40;3.90;99.90
45329;DHT22;31063;48.356;10.896;2022-12-07T16:54:11;3.90;99.90
45329;DHT22;31063;48.356;10.896;2022-12-07T16:56:37;3.10;99.90
45329;DHT22;31063;48.356;10.896;2022-12-07T16:59:03;4.50;99.90
45329;DHT22;31063;48.356;10.896;2022-12-07T17:01:29;3.80;99.90
45329;DHT22;31063;48.356;10.896;2022-12-07T17:03:56;3.80;99.90
45329;DHT22;31063;48.356;10.896;2022-12-07T17:06:24;3.80;99.90
45329;DHT22;31063;48.356;10.896;2022-12-07T17:08:50;3.70;99.90
45329;DHT22;31063;48.356;10.896;2022-12-07T17:11:17;4.00;99.90
45329;DHT22;31063;48.356;10.896;2022-12-07T17:13:43;4.10;99.90
45329;DHT22;31063;48.356;10.896;2022-12-07T17:16:28;3.50;99.90
45329;DHT22;31063;48.356;10.896;2022-12-07T17:18:54;3.50;99.90
45329;DHT22;31063;48.356;10.896;2022-12-07T17:21:20;3.40;99.90
45329;DHT22;31063;48.356;10.896;2022-12-07T17:23:46;3.40;99.90
45329;DHT22;31063;48.356;10.896;2022-12-07T17:26:15;3.40;99.90
45329;DHT22;31063;48.356;10.896;2022-12-07T17:28:41;3.30;99.90
45329;DHT22;31063;48.356;10.896;2022-12-07T17:31:09;4.00;99.90
45329;DHT22;31063;48.356;10.896;2022-12-07T17:33:35;3.30;99.90
45329;DHT22;31063;48.356;10.896;2022-12-07T17:36:08;3.20;99.90
45329;DHT22;31063;48.356;10.896;2022-12-07T17:38:34;3.30;99.90
45329;DHT22;31063;48.356;10.896;2022-12-07T17:40:59;3.10;99.90
45329;DHT22;31063;48.356;10.896;2022-12-07T17:43:25;3.10;99.90
45329;DHT22;31063;48.356;10.896;2022-12-07T17:45:51;3.00;99.90
45329;DHT22;31063;48.356;10.896;2022-12-07T17:48:16;3.00;99.90